KAUO/AUO METAR and TAF weather

Enter ICAO airport designator
Station Type Date Time Source
KAUO METAR 2022/06/25 22:32 UTC NOAA

KAUO 252232Z AUTO 20011KT 10SM FEW029 29/24 A3006 RMK AO2 WSHFT 2212 LTG DSNT S-W


Station Type Date Time Source
KAUO Decoded METAR 2022/06/25 22:32 UTC NOAA

Auburn-Opelika Airport, AL, United States (KAUO) 32-37N 085-26W
Jun 25, 2022 - 06:32 PM EDT / 2022.06.25 2232 UTC
Wind: from the SSW (200 degrees) at 13 MPH (11 KT):0
Visibility: 10 mile(s):0
Sky conditions: mostly clear
Weather: Lightning observed
Temperature: 84 F (29 C)
Dew Point: 75 F (24 C)
Relative Humidity: 74%
Pressure (altimeter): 30.06 in. Hg (1017 hPa)
ob: KAUO 252232Z AUTO 20011KT 10SM FEW029 29/24 A3006 RMK AO2 WSHFT 2212 LTG DSNT S-W
cycle: 22

Station Type Date Time Source
KAUO TAF UTC NOAA

Error!

Example: see airport list